sensor_id;sensor_type;location;lat;lon;timestamp;P1;durP1;ratioP1;P2;durP2;ratioP2
791;SDS011;379;49.022;12.148;2022-10-18T00:01:33;3.27;;;2.87;;
791;SDS011;379;49.022;12.148;2022-10-18T00:04:00;3.00;;;2.77;;
791;SDS011;379;49.022;12.148;2022-10-18T00:06:27;4.00;;;3.60;;
791;SDS011;379;49.022;12.148;2022-10-18T00:08:53;3.40;;;3.10;;
791;SDS011;379;49.022;12.148;2022-10-18T00:11:20;2.23;;;2.03;;
791;SDS011;379;49.022;12.148;2022-10-18T00:13:47;8.13;;;3.40;;
791;SDS011;379;49.022;12.148;2022-10-18T00:16:15;3.03;;;2.73;;
791;SDS011;379;49.022;12.148;2022-10-18T00:18:43;4.90;;;4.53;;
791;SDS011;379;49.022;12.148;2022-10-18T00:21:13;3.57;;;2.60;;
791;SDS011;379;49.022;12.148;2022-10-18T00:23:41;5.30;;;3.73;;
791;SDS011;379;49.022;12.148;2022-10-18T00:26:09;3.77;;;2.60;;
791;SDS011;379;49.022;12.148;2022-10-18T00:28:38;3.90;;;3.17;;
791;SDS011;379;49.022;12.148;2022-10-18T00:31:09;3.03;;;2.73;;
791;SDS011;379;49.022;12.148;2022-10-18T00:33:39;3.07;;;2.33;;
791;SDS011;379;49.022;12.148;2022-10-18T00:36:06;5.13;;;3.10;;
791;SDS011;379;49.022;12.148;2022-10-18T00:38:33;2.17;;;2.07;;
791;SDS011;379;49.022;12.148;2022-10-18T00:41:01;2.87;;;1.83;;
791;SDS011;379;49.022;12.148;2022-10-18T00:43:28;7.07;;;2.70;;
791;SDS011;379;49.022;12.148;2022-10-18T00:45:55;3.57;;;2.53;;
791;SDS011;379;49.022;12.148;2022-10-18T00:48:21;3.07;;;2.73;;
791;SDS011;379;49.022;12.148;2022-10-18T00:50:51;1.40;;;1.30;;
791;SDS011;379;49.022;12.148;2022-10-18T00:53:19;6.37;;;3.00;;
791;SDS011;379;49.022;12.148;2022-10-18T00:55:47;4.23;;;3.77;;
791;SDS011;379;49.022;12.148;2022-10-18T00:58:15;2.30;;;2.10;;
791;SDS011;379;49.022;12.148;2022-10-18T01:00:43;2.53;;;2.10;;
791;SDS011;379;49.022;12.148;2022-10-18T01:03:10;4.90;;;3.10;;
791;SDS011;379;49.022;12.148;2022-10-18T01:05:39;3.20;;;2.77;;
791;SDS011;379;49.022;12.148;2022-10-18T01:08:13;6.40;;;4.30;;
791;SDS011;379;49.022;12.148;2022-10-18T01:10:53;3.27;;;2.97;;
791;SDS011;379;49.022;12.148;2022-10-18T01:13:30;7.57;;;3.07;;
791;SDS011;379;49.022;12.148;2022-10-18T01:16:12;3.53;;;2.67;;
791;SDS011;379;49.022;12.148;2022-10-18T01:18:46;2.60;;;1.70;;
791;SDS011;379;49.022;12.148;2022-10-18T01:21:21;1.83;;;1.40;;
791;SDS011;379;49.022;12.148;2022-10-18T01:24:05;3.37;;;3.07;;
791;SDS011;379;49.022;12.148;2022-10-18T01:29:49;3.83;;;2.00;;
791;SDS011;379;49.022;12.148;2022-10-18T01:32:29;3.87;;;2.57;;
791;SDS011;379;49.022;12.148;2022-10-18T01:35:02;3.70;;;2.57;;
791;SDS011;379;49.022;12.148;2022-10-18T01:37:32;3.00;;;2.53;;
791;SDS011;379;49.022;12.148;2022-10-18T01:40:01;4.20;;;2.20;;
791;SDS011;379;49.022;12.148;2022-10-18T01:42:31;2.00;;;1.40;;
791;SDS011;379;49.022;12.148;2022-10-18T01:44:58;2.50;;;2.40;;
791;SDS011;379;49.022;12.148;2022-10-18T01:47:29;2.10;;;1.63;;
791;SDS011;379;49.022;12.148;2022-10-18T01:49:57;2.00;;;1.60;;
791;SDS011;379;49.022;12.148;2022-10-18T01:52:25;3.90;;;2.67;;
791;SDS011;379;49.022;12.148;2022-10-18T01:54:52;4.97;;;4.17;;
791;SDS011;379;49.022;12.148;2022-10-18T01:57:21;2.10;;;1.50;;
791;SDS011;379;49.022;12.148;2022-10-18T01:59:55;1.60;;;1.50;;
791;SDS011;379;49.022;12.148;2022-10-18T02:02:33;3.07;;;1.77;;
791;SDS011;379;49.022;12.148;2022-10-18T02:05:09;2.40;;;2.20;;
791;SDS011;379;49.022;12.148;2022-10-18T02:07:40;2.70;;;2.07;;
791;SDS011;379;49.022;12.148;2022-10-18T02:10:11;7.90;;;3.33;;
791;SDS011;379;49.022;12.148;2022-10-18T02:12:43;2.57;;;1.47;;
791;SDS011;379;49.022;12.148;2022-10-18T02:15:13;4.70;;;2.60;;
791;SDS011;379;49.022;12.148;2022-10-18T02:17:46;1.87;;;1.43;;
791;SDS011;379;49.022;12.148;2022-10-18T02:20:13;3.73;;;3.17;;
791;SDS011;379;49.022;12.148;2022-10-18T02:22:43;2.13;;;1.27;;
791;SDS011;379;49.022;12.148;2022-10-18T02:25:12;2.80;;;2.57;;
791;SDS011;379;49.022;12.148;2022-10-18T02:27:42;3.73;;;3.43;;
791;SDS011;379;49.022;12.148;2022-10-18T02:30:09;4.57;;;4.17;;
791;SDS011;379;49.022;12.148;2022-10-18T02:32:40;4.53;;;4.10;;
791;SDS011;379;49.022;12.148;2022-10-18T02:35:13;9.60;;;2.37;;
791;SDS011;379;49.022;12.148;2022-10-18T02:37:45;5.87;;;3.73;;
791;SDS011;379;49.022;12.148;2022-10-18T02:40:14;5.70;;;2.50;;
791;SDS011;379;49.022;12.148;2022-10-18T02:42:42;6.47;;;4.23;;
791;SDS011;379;49.022;12.148;2022-10-18T02:45:11;4.23;;;3.30;;
791;SDS011;379;49.022;12.148;2022-10-18T02:47:38;2.50;;;2.30;;
791;SDS011;379;49.022;12.148;2022-10-18T02:50:05;6.33;;;3.10;;
791;SDS011;379;49.022;12.148;2022-10-18T02:52:34;6.90;;;2.73;;
791;SDS011;379;49.022;12.148;2022-10-18T02:55:01;6.97;;;4.80;;
791;SDS011;379;49.022;12.148;2022-10-18T02:57:27;2.83;;;2.63;;
791;SDS011;379;49.022;12.148;2022-10-18T02:59:54;6.53;;;3.30;;
791;SDS011;379;49.022;12.148;2022-10-18T03:02:21;3.43;;;3.07;;
791;SDS011;379;49.022;12.148;2022-10-18T03:04:48;3.40;;;3.10;;
791;SDS011;379;49.022;12.148;2022-10-18T03:07:14;4.77;;;2.73;;
791;SDS011;379;49.022;12.148;2022-10-18T03:09:42;2.63;;;2.43;;
791;SDS011;379;49.022;12.148;2022-10-18T03:12:09;4.20;;;3.37;;
791;SDS011;379;49.022;12.148;2022-10-18T03:14:36;4.67;;;3.47;;
791;SDS011;379;49.022;12.148;2022-10-18T03:17:03;4.53;;;2.80;;
791;SDS011;379;49.022;12.148;2022-10-18T03:19:29;2.57;;;2.33;;
791;SDS011;379;49.022;12.148;2022-10-18T03:21:56;2.53;;;2.33;;
791;SDS011;379;49.022;12.148;2022-10-18T03:24:23;3.13;;;1.77;;
791;SDS011;379;49.022;12.148;2022-10-18T03:26:51;5.57;;;4.13;;
791;SDS011;379;49.022;12.148;2022-10-18T03:29:18;2.50;;;2.30;;
791;SDS011;379;49.022;12.148;2022-10-18T03:31:44;5.87;;;2.47;;
791;SDS011;379;49.022;12.148;2022-10-18T03:34:11;2.17;;;1.93;;
791;SDS011;379;49.022;12.148;2022-10-18T03:36:39;3.67;;;2.00;;
791;SDS011;379;49.022;12.148;2022-10-18T03:39:06;2.93;;;2.73;;
791;SDS011;379;49.022;12.148;2022-10-18T03:41:33;4.63;;;2.90;;
791;SDS011;379;49.022;12.148;2022-10-18T03:44:01;2.70;;;2.03;;
791;SDS011;379;49.022;12.148;2022-10-18T03:46:28;4.43;;;3.80;;
791;SDS011;379;49.022;12.148;2022-10-18T03:48:54;3.90;;;3.50;;
791;SDS011;379;49.022;12.148;2022-10-18T03:51:21;5.77;;;3.73;;
791;SDS011;379;49.022;12.148;2022-10-18T03:53:48;6.50;;;2.90;;
791;SDS011;379;49.022;12.148;2022-10-18T03:56:14;2.40;;;2.20;;
791;SDS011;379;49.022;12.148;2022-10-18T03:58:41;5.97;;;3.30;;
791;SDS011;379;49.022;12.148;2022-10-18T04:01:09;5.03;;;3.53;;
791;SDS011;379;49.022;12.148;2022-10-18T04:03:36;5.30;;;2.60;;
791;SDS011;379;49.022;12.148;2022-10-18T04:06:03;2.70;;;1.77;;
791;SDS011;379;49.022;12.148;2022-10-18T04:08:31;5.13;;;3.10;;
791;SDS011;379;49.022;12.148;2022-10-18T04:10:58;4.57;;;3.43;;
791;SDS011;379;49.022;12.148;2022-10-18T04:13:25;2.63;;;2.40;;
791;SDS011;379;49.022;12.148;2022-10-18T04:15:51;4.90;;;3.57;;
791;SDS011;379;49.022;12.148;2022-10-18T04:18:19;2.00;;;1.77;;
791;SDS011;379;49.022;12.148;2022-10-18T04:20:46;9.20;;;4.10;;
791;SDS011;379;49.022;12.148;2022-10-18T04:23:13;4.33;;;2.67;;
791;SDS011;379;49.022;12.148;2022-10-18T04:25:39;2.80;;;2.60;;
791;SDS011;379;49.022;12.148;2022-10-18T04:28:06;6.03;;;4.27;;
791;SDS011;379;49.022;12.148;2022-10-18T04:30:33;3.63;;;3.30;;
791;SDS011;379;49.022;12.148;2022-10-18T04:32:59;3.93;;;3.40;;
791;SDS011;379;49.022;12.148;2022-10-18T04:35:27;2.27;;;1.90;;
791;SDS011;379;49.022;12.148;2022-10-18T04:37:54;6.17;;;3.53;;
791;SDS011;379;49.022;12.148;2022-10-18T04:40:21;3.40;;;2.13;;
791;SDS011;379;49.022;12.148;2022-10-18T04:42:47;17.33;;;3.13;;
791;SDS011;379;49.022;12.148;2022-10-18T04:45:14;4.93;;;2.97;;
791;SDS011;379;49.022;12.148;2022-10-18T04:47:41;3.70;;;3.33;;
791;SDS011;379;49.022;12.148;2022-10-18T04:50:08;6.10;;;4.30;;
791;SDS011;379;49.022;12.148;2022-10-18T04:52:36;5.47;;;3.67;;
791;SDS011;379;49.022;12.148;2022-10-18T04:55:03;5.70;;;1.90;;
791;SDS011;379;49.022;12.148;2022-10-18T04:57:30;6.17;;;3.80;;
791;SDS011;379;49.022;12.148;2022-10-18T04:59:57;3.97;;;2.97;;
791;SDS011;379;49.022;12.148;2022-10-18T05:02:23;7.20;;;5.90;;
791;SDS011;379;49.022;12.148;2022-10-18T05:04:50;16.53;;;6.70;;
791;SDS011;379;49.022;12.148;2022-10-18T05:07:17;6.87;;;4.53;;
791;SDS011;379;49.022;12.148;2022-10-18T05:09:45;6.17;;;5.70;;
791;SDS011;379;49.022;12.148;2022-10-18T05:12:12;4.80;;;4.00;;
791;SDS011;379;49.022;12.148;2022-10-18T05:14:38;4.87;;;3.77;;
791;SDS011;379;49.022;12.148;2022-10-18T05:17:05;3.37;;;3.10;;
791;SDS011;379;49.022;12.148;2022-10-18T05:19:32;5.77;;;3.77;;
791;SDS011;379;49.022;12.148;2022-10-18T05:21:59;7.03;;;3.20;;
791;SDS011;379;49.022;12.148;2022-10-18T05:24:25;7.40;;;6.10;;
791;SDS011;379;49.022;12.148;2022-10-18T05:26:54;4.83;;;3.50;;
791;SDS011;379;49.022;12.148;2022-10-18T05:29:20;5.87;;;3.87;;
791;SDS011;379;49.022;12.148;2022-10-18T05:31:47;2.53;;;2.33;;
791;SDS011;379;49.022;12.148;2022-10-18T05:34:14;7.50;;;5.73;;
791;SDS011;379;49.022;12.148;2022-10-18T05:36:41;3.53;;;2.37;;
791;SDS011;379;49.022;12.148;2022-10-18T05:39:08;4.40;;;2.67;;
791;SDS011;379;49.022;12.148;2022-10-18T05:41:35;5.83;;;5.07;;
791;SDS011;379;49.022;12.148;2022-10-18T05:44:03;2.83;;;2.53;;
791;SDS011;379;49.022;12.148;2022-10-18T05:46:31;11.93;;;4.57;;
791;SDS011;379;49.022;12.148;2022-10-18T05:48:58;2.67;;;2.33;;
791;SDS011;379;49.022;12.148;2022-10-18T05:51:25;8.80;;;4.10;;
791;SDS011;379;49.022;12.148;2022-10-18T05:53:51;4.40;;;3.50;;
791;SDS011;379;49.022;12.148;2022-10-18T05:56:18;4.40;;;2.90;;
791;SDS011;379;49.022;12.148;2022-10-18T05:58:48;3.50;;;2.87;;
791;SDS011;379;49.022;12.148;2022-10-18T06:01:17;6.00;;;4.47;;
791;SDS011;379;49.022;12.148;2022-10-18T06:03:44;4.83;;;4.10;;
791;SDS011;379;49.022;12.148;2022-10-18T06:06:11;2.60;;;2.40;;
791;SDS011;379;49.022;12.148;2022-10-18T06:08:39;4.00;;;2.50;;
791;SDS011;379;49.022;12.148;2022-10-18T06:11:07;3.43;;;2.97;;
791;SDS011;379;49.022;12.148;2022-10-18T06:13:38;10.73;;;4.20;;
791;SDS011;379;49.022;12.148;2022-10-18T06:16:06;6.03;;;4.73;;
791;SDS011;379;49.022;12.148;2022-10-18T06:18:35;5.50;;;3.33;;
791;SDS011;379;49.022;12.148;2022-10-18T06:21:02;4.83;;;2.63;;
791;SDS011;379;49.022;12.148;2022-10-18T06:23:29;8.13;;;5.00;;
791;SDS011;379;49.022;12.148;2022-10-18T06:25:59;3.93;;;3.17;;
791;SDS011;379;49.022;12.148;2022-10-18T06:28:26;6.10;;;3.93;;
791;SDS011;379;49.022;12.148;2022-10-18T06:30:53;18.23;;;4.87;;
791;SDS011;379;49.022;12.148;2022-10-18T06:33:20;6.80;;;4.07;;
791;SDS011;379;49.022;12.148;2022-10-18T06:35:56;2.90;;;2.20;;
791;SDS011;379;49.022;12.148;2022-10-18T06:38:23;3.60;;;2.90;;
791;SDS011;379;49.022;12.148;2022-10-18T06:40:50;6.27;;;4.20;;
791;SDS011;379;49.022;12.148;2022-10-18T06:43:17;7.50;;;4.53;;
791;SDS011;379;49.022;12.148;2022-10-18T06:45:44;9.13;;;4.70;;
791;SDS011;379;49.022;12.148;2022-10-18T06:48:10;4.63;;;4.17;;
791;SDS011;379;49.022;12.148;2022-10-18T06:50:37;9.00;;;3.20;;
791;SDS011;379;49.022;12.148;2022-10-18T06:53:05;5.97;;;3.70;;
791;SDS011;379;49.022;12.148;2022-10-18T06:55:33;3.83;;;3.37;;
791;SDS011;379;49.022;12.148;2022-10-18T06:58:00;4.70;;;3.73;;
791;SDS011;379;49.022;12.148;2022-10-18T07:00:27;8.20;;;4.37;;
791;SDS011;379;49.022;12.148;2022-10-18T07:02:55;5.60;;;4.60;;
791;SDS011;379;49.022;12.148;2022-10-18T07:05:22;6.67;;;4.53;;
791;SDS011;379;49.022;12.148;2022-10-18T07:07:48;6.20;;;4.57;;
791;SDS011;379;49.022;12.148;2022-10-18T07:10:17;7.50;;;5.60;;
791;SDS011;379;49.022;12.148;2022-10-18T07:12:43;11.33;;;5.37;;
791;SDS011;379;49.022;12.148;2022-10-18T07:15:10;6.63;;;6.00;;
791;SDS011;379;49.022;12.148;2022-10-18T07:17:37;2.57;;;2.37;;
791;SDS011;379;49.022;12.148;2022-10-18T07:20:03;6.73;;;5.50;;
791;SDS011;379;49.022;12.148;2022-10-18T07:22:31;5.90;;;5.17;;
791;SDS011;379;49.022;12.148;2022-10-18T07:24:58;4.73;;;3.13;;
791;SDS011;379;49.022;12.148;2022-10-18T07:27:26;4.87;;;3.90;;
791;SDS011;379;49.022;12.148;2022-10-18T07:29:52;6.70;;;4.50;;
791;SDS011;379;49.022;12.148;2022-10-18T07:32:19;15.03;;;6.27;;
791;SDS011;379;49.022;12.148;2022-10-18T07:34:46;4.23;;;3.83;;
791;SDS011;379;49.022;12.148;2022-10-18T07:37:12;11.17;;;5.40;;
791;SDS011;379;49.022;12.148;2022-10-18T07:39:39;4.53;;;4.03;;
791;SDS011;379;49.022;12.148;2022-10-18T07:42:06;6.80;;;3.03;;
791;SDS011;379;49.022;12.148;2022-10-18T07:44:34;9.03;;;5.10;;
791;SDS011;379;49.022;12.148;2022-10-18T07:47:01;19.37;;;6.73;;
791;SDS011;379;49.022;12.148;2022-10-18T07:49:27;9.13;;;4.90;;
791;SDS011;379;49.022;12.148;2022-10-18T07:51:54;8.47;;;5.97;;
791;SDS011;379;49.022;12.148;2022-10-18T07:54:21;3.63;;;3.20;;
791;SDS011;379;49.022;12.148;2022-10-18T07:56:47;6.53;;;5.03;;
791;SDS011;379;49.022;12.148;2022-10-18T07:59:14;10.03;;;5.87;;
791;SDS011;379;49.022;12.148;2022-10-18T08:01:42;6.53;;;5.63;;
791;SDS011;379;49.022;12.148;2022-10-18T08:04:09;5.60;;;4.60;;
791;SDS011;379;49.022;12.148;2022-10-18T08:06:36;5.40;;;4.63;;
791;SDS011;379;49.022;12.148;2022-10-18T08:09:03;6.37;;;4.40;;
791;SDS011;379;49.022;12.148;2022-10-18T08:11:30;5.33;;;4.90;;
791;SDS011;379;49.022;12.148;2022-10-18T08:13:58;7.43;;;4.70;;
791;SDS011;379;49.022;12.148;2022-10-18T08:16:25;4.80;;;4.27;;
791;SDS011;379;49.022;12.148;2022-10-18T08:18:55;10.00;;;6.33;;
791;SDS011;379;49.022;12.148;2022-10-18T08:21:23;5.10;;;4.00;;
791;SDS011;379;49.022;12.148;2022-10-18T08:23:50;6.90;;;4.70;;
791;SDS011;379;49.022;12.148;2022-10-18T08:26:18;7.60;;;4.37;;
791;SDS011;379;49.022;12.148;2022-10-18T08:28:46;4.17;;;3.77;;
791;SDS011;379;49.022;12.148;2022-10-18T08:31:14;5.30;;;4.63;;
791;SDS011;379;49.022;12.148;2022-10-18T08:33:42;9.63;;;6.23;;
791;SDS011;379;49.022;12.148;2022-10-18T08:36:11;8.00;;;3.90;;
791;SDS011;379;49.022;12.148;2022-10-18T08:38:40;10.80;;;7.43;;
791;SDS011;379;49.022;12.148;2022-10-18T08:41:20;5.23;;;4.03;;
791;SDS011;379;49.022;12.148;2022-10-18T08:44:10;5.50;;;4.97;;
791;SDS011;379;49.022;12.148;2022-10-18T08:46:43;7.53;;;4.40;;
791;SDS011;379;49.022;12.148;2022-10-18T08:49:14;6.37;;;4.20;;
791;SDS011;379;49.022;12.148;2022-10-18T08:51:49;9.13;;;4.33;;
791;SDS011;379;49.022;12.148;2022-10-18T08:54:17;6.70;;;4.13;;
791;SDS011;379;49.022;12.148;2022-10-18T08:56:53;9.67;;;6.90;;
791;SDS011;379;49.022;12.148;2022-10-18T08:59:24;7.53;;;6.10;;
791;SDS011;379;49.022;12.148;2022-10-18T09:01:55;6.97;;;4.43;;
791;SDS011;379;49.022;12.148;2022-10-18T09:04:33;13.03;;;6.93;;
791;SDS011;379;49.022;12.148;2022-10-18T09:07:21;10.73;;;6.00;;
791;SDS011;379;49.022;12.148;2022-10-18T09:10:02;8.80;;;5.60;;
791;SDS011;379;49.022;12.148;2022-10-18T09:12:39;6.00;;;5.43;;
791;SDS011;379;49.022;12.148;2022-10-18T09:15:17;9.50;;;4.90;;
791;SDS011;379;49.022;12.148;2022-10-18T09:17:55;7.83;;;6.30;;
791;SDS011;379;49.022;12.148;2022-10-18T09:20:32;16.13;;;6.57;;
791;SDS011;379;49.022;12.148;2022-10-18T09:23:12;9.83;;;6.80;;
791;SDS011;379;49.022;12.148;2022-10-18T09:25:45;8.30;;;6.30;;
791;SDS011;379;49.022;12.148;2022-10-18T09:28:14;11.03;;;5.50;;
791;SDS011;379;49.022;12.148;2022-10-18T09:30:47;6.67;;;5.83;;
791;SDS011;379;49.022;12.148;2022-10-18T09:33:24;9.60;;;7.07;;
791;SDS011;379;49.022;12.148;2022-10-18T09:35:59;14.50;;;6.47;;
791;SDS011;379;49.022;12.148;2022-10-18T09:38:31;8.97;;;6.67;;
791;SDS011;379;49.022;12.148;2022-10-18T09:41:04;15.80;;;8.50;;
791;SDS011;379;49.022;12.148;2022-10-18T09:43:38;13.47;;;9.77;;
791;SDS011;379;49.022;12.148;2022-10-18T09:46:12;10.00;;;8.50;;
791;SDS011;379;49.022;12.148;2022-10-18T09:48:42;9.23;;;7.77;;
791;SDS011;379;49.022;12.148;2022-10-18T09:51:13;10.53;;;9.17;;
791;SDS011;379;49.022;12.148;2022-10-18T09:53:51;17.37;;;7.13;;
791;SDS011;379;49.022;12.148;2022-10-18T09:56:35;7.97;;;5.63;;
791;SDS011;379;49.022;12.148;2022-10-18T09:59:08;7.50;;;6.13;;
791;SDS011;379;49.022;12.148;2022-10-18T10:01:52;6.77;;;6.13;;
791;SDS011;379;49.022;12.148;2022-10-18T10:04:19;14.37;;;7.90;;
791;SDS011;379;49.022;12.148;2022-10-18T10:06:48;11.57;;;6.27;;
791;SDS011;379;49.022;12.148;2022-10-18T10:09:17;9.03;;;6.50;;
791;SDS011;379;49.022;12.148;2022-10-18T10:11:50;7.47;;;6.40;;
791;SDS011;379;49.022;12.148;2022-10-18T10:14:19;9.63;;;6.30;;
791;SDS011;379;49.022;12.148;2022-10-18T10:16:50;8.60;;;7.23;;
791;SDS011;379;49.022;12.148;2022-10-18T10:19:19;5.30;;;4.67;;
791;SDS011;379;49.022;12.148;2022-10-18T10:21:54;7.60;;;5.00;;
791;SDS011;379;49.022;12.148;2022-10-18T10:24:28;6.53;;;5.70;;
791;SDS011;379;49.022;12.148;2022-10-18T10:27:01;7.63;;;6.87;;
791;SDS011;379;49.022;12.148;2022-10-18T10:29:49;7.40;;;6.63;;
791;SDS011;379;49.022;12.148;2022-10-18T10:32:25;7.30;;;6.23;;
791;SDS011;379;49.022;12.148;2022-10-18T10:34:53;5.67;;;5.20;;
791;SDS011;379;49.022;12.148;2022-10-18T10:37:25;11.60;;;6.37;;
791;SDS011;379;49.022;12.148;2022-10-18T10:42:51;7.97;;;5.60;;
791;SDS011;379;49.022;12.148;2022-10-18T10:45:27;7.70;;;6.10;;
791;SDS011;379;49.022;12.148;2022-10-18T10:48:00;8.20;;;5.53;;
791;SDS011;379;49.022;12.148;2022-10-18T10:50:33;6.00;;;5.40;;
791;SDS011;379;49.022;12.148;2022-10-18T10:56:20;7.07;;;5.40;;
791;SDS011;379;49.022;12.148;2022-10-18T10:58:50;8.17;;;5.40;;
791;SDS011;379;49.022;12.148;2022-10-18T11:01:23;5.70;;;5.03;;
791;SDS011;379;49.022;12.148;2022-10-18T11:03:52;8.90;;;6.93;;
791;SDS011;379;49.022;12.148;2022-10-18T11:06:31;7.27;;;6.13;;
791;SDS011;379;49.022;12.148;2022-10-18T11:09:14;5.63;;;5.10;;
791;SDS011;379;49.022;12.148;2022-10-18T11:12:13;6.50;;;4.83;;
791;SDS011;379;49.022;12.148;2022-10-18T11:14:46;6.30;;;5.53;;
791;SDS011;379;49.022;12.148;2022-10-18T11:17:20;5.03;;;3.97;;
791;SDS011;379;49.022;12.148;2022-10-18T11:22:42;6.87;;;6.00;;
791;SDS011;379;49.022;12.148;2022-10-18T11:25:14;6.50;;;4.23;;
791;SDS011;379;49.022;12.148;2022-10-18T11:27:45;6.57;;;5.60;;
791;SDS011;379;49.022;12.148;2022-10-18T11:30:33;8.40;;;7.63;;
791;SDS011;379;49.022;12.148;2022-10-18T11:33:12;8.40;;;6.60;;
791;SDS011;379;49.022;12.148;2022-10-18T11:35:49;6.17;;;5.23;;
791;SDS011;379;49.022;12.148;2022-10-18T11:38:24;7.70;;;6.80;;
791;SDS011;379;49.022;12.148;2022-10-18T11:41:10;12.57;;;6.83;;
791;SDS011;379;49.022;12.148;2022-10-18T11:43:56;10.30;;;6.37;;
791;SDS011;379;49.022;12.148;2022-10-18T11:46:29;8.13;;;7.10;;
791;SDS011;379;49.022;12.148;2022-10-18T11:52:07;9.53;;;7.77;;
791;SDS011;379;49.022;12.148;2022-10-18T11:57:38;10.40;;;6.70;;
791;SDS011;379;49.022;12.148;2022-10-18T12:00:16;7.37;;;6.23;;
791;SDS011;379;49.022;12.148;2022-10-18T12:05:41;8.17;;;6.63;;
791;SDS011;379;49.022;12.148;2022-10-18T12:08:11;10.60;;;8.07;;
791;SDS011;379;49.022;12.148;2022-10-18T12:10:40;8.80;;;5.83;;
791;SDS011;379;49.022;12.148;2022-10-18T12:13:12;10.20;;;7.07;;
791;SDS011;379;49.022;12.148;2022-10-18T12:15:44;7.47;;;6.57;;
791;SDS011;379;49.022;12.148;2022-10-18T12:18:13;8.37;;;7.57;;
791;SDS011;379;49.022;12.148;2022-10-18T12:20:43;10.57;;;7.00;;
791;SDS011;379;49.022;12.148;2022-10-18T12:23:13;5.80;;;5.20;;
791;SDS011;379;49.022;12.148;2022-10-18T12:25:42;12.00;;;8.00;;
791;SDS011;379;49.022;12.148;2022-10-18T12:28:14;9.93;;;7.23;;
791;SDS011;379;49.022;12.148;2022-10-18T12:30:50;7.30;;;5.10;;
791;SDS011;379;49.022;12.148;2022-10-18T12:33:23;9.47;;;6.53;;
791;SDS011;379;49.022;12.148;2022-10-18T12:35:55;9.27;;;7.63;;
791;SDS011;379;49.022;12.148;2022-10-18T12:38:30;9.10;;;7.00;;
791;SDS011;379;49.022;12.148;2022-10-18T12:40:58;9.97;;;6.40;;
791;SDS011;379;49.022;12.148;2022-10-18T12:43:26;8.23;;;6.93;;
791;SDS011;379;49.022;12.148;2022-10-18T12:45:59;6.60;;;5.97;;
791;SDS011;379;49.022;12.148;2022-10-18T12:48:29;10.17;;;6.73;;
791;SDS011;379;49.022;12.148;2022-10-18T12:50:59;8.87;;;7.10;;
791;SDS011;379;49.022;12.148;2022-10-18T12:53:31;9.27;;;5.17;;
791;SDS011;379;49.022;12.148;2022-10-18T13:02:16;7.93;;;6.17;;
791;SDS011;379;49.022;12.148;2022-10-18T13:04:46;8.97;;;6.03;;
791;SDS011;379;49.022;12.148;2022-10-18T13:07:16;9.70;;;7.97;;
791;SDS011;379;49.022;12.148;2022-10-18T13:13:15;7.47;;;5.70;;
791;SDS011;379;49.022;12.148;2022-10-18T13:16:03;9.17;;;5.80;;
791;SDS011;379;49.022;12.148;2022-10-18T13:18:43;6.83;;;5.40;;
791;SDS011;379;49.022;12.148;2022-10-18T13:21:18;8.93;;;6.70;;
791;SDS011;379;49.022;12.148;2022-10-18T13:23:53;7.20;;;4.90;;
791;SDS011;379;49.022;12.148;2022-10-18T13:26:44;5.70;;;5.17;;
791;SDS011;379;49.022;12.148;2022-10-18T13:29:28;9.00;;;6.80;;
791;SDS011;379;49.022;12.148;2022-10-18T13:32:04;10.17;;;7.40;;
791;SDS011;379;49.022;12.148;2022-10-18T13:34:43;7.27;;;6.17;;
791;SDS011;379;49.022;12.148;2022-10-18T13:37:17;7.80;;;7.00;;
791;SDS011;379;49.022;12.148;2022-10-18T13:39:48;8.53;;;7.70;;
791;SDS011;379;49.022;12.148;2022-10-18T13:42:28;9.07;;;8.17;;
791;SDS011;379;49.022;12.148;2022-10-18T13:51:08;6.20;;;5.60;;
791;SDS011;379;49.022;12.148;2022-10-18T13:53:54;9.37;;;7.27;;
791;SDS011;379;49.022;12.148;2022-10-18T13:56:40;8.33;;;4.63;;
791;SDS011;379;49.022;12.148;2022-10-18T13:59:28;7.50;;;6.70;;
791;SDS011;379;49.022;12.148;2022-10-18T14:02:28;13.60;;;5.60;;
791;SDS011;379;49.022;12.148;2022-10-18T14:05:11;6.20;;;4.73;;
791;SDS011;379;49.022;12.148;2022-10-18T14:07:46;7.80;;;7.10;;
791;SDS011;379;49.022;12.148;2022-10-18T14:10:16;7.90;;;6.10;;
791;SDS011;379;49.022;12.148;2022-10-18T14:12:48;8.57;;;3.90;;
791;SDS011;379;49.022;12.148;2022-10-18T14:15:22;6.10;;;5.50;;
791;SDS011;379;49.022;12.148;2022-10-18T14:17:51;8.33;;;5.77;;
791;SDS011;379;49.022;12.148;2022-10-18T14:20:24;8.27;;;6.50;;
791;SDS011;379;49.022;12.148;2022-10-18T14:22:55;6.63;;;5.87;;
791;SDS011;379;49.022;12.148;2022-10-18T14:25:28;7.97;;;6.80;;
791;SDS011;379;49.022;12.148;2022-10-18T14:28:03;8.77;;;5.90;;
791;SDS011;379;49.022;12.148;2022-10-18T14:30:31;12.27;;;5.93;;
791;SDS011;379;49.022;12.148;2022-10-18T14:32:59;6.50;;;5.80;;
791;SDS011;379;49.022;12.148;2022-10-18T14:35:27;9.47;;;6.13;;
791;SDS011;379;49.022;12.148;2022-10-18T14:37:57;7.20;;;6.50;;
791;SDS011;379;49.022;12.148;2022-10-18T14:40:25;4.80;;;4.23;;
791;SDS011;379;49.022;12.148;2022-10-18T14:43:00;9.47;;;6.60;;
791;SDS011;379;49.022;12.148;2022-10-18T14:45:28;6.40;;;4.73;;
791;SDS011;379;49.022;12.148;2022-10-18T14:48:03;7.20;;;6.30;;
791;SDS011;379;49.022;12.148;2022-10-18T14:50:30;10.40;;;5.90;;
791;SDS011;379;49.022;12.148;2022-10-18T14:53:03;7.40;;;6.17;;
791;SDS011;379;49.022;12.148;2022-10-18T14:55:31;7.13;;;5.43;;
791;SDS011;379;49.022;12.148;2022-10-18T14:57:59;5.93;;;5.17;;
791;SDS011;379;49.022;12.148;2022-10-18T15:00:27;6.80;;;5.60;;
791;SDS011;379;49.022;12.148;2022-10-18T15:02:59;7.33;;;5.33;;
791;SDS011;379;49.022;12.148;2022-10-18T15:05:27;6.10;;;4.53;;
791;SDS011;379;49.022;12.148;2022-10-18T15:07:54;9.07;;;6.30;;
791;SDS011;379;49.022;12.148;2022-10-18T15:10:26;5.87;;;4.03;;
791;SDS011;379;49.022;12.148;2022-10-18T15:12:55;9.67;;;5.10;;
791;SDS011;379;49.022;12.148;2022-10-18T15:15:25;4.23;;;3.83;;
791;SDS011;379;49.022;12.148;2022-10-18T15:17:54;5.97;;;4.50;;
791;SDS011;379;49.022;12.148;2022-10-18T15:20:23;6.27;;;4.40;;
791;SDS011;379;49.022;12.148;2022-10-18T15:22:51;6.40;;;4.37;;
791;SDS011;379;49.022;12.148;2022-10-18T15:25:20;3.93;;;3.63;;
791;SDS011;379;49.022;12.148;2022-10-18T15:27:51;4.47;;;3.93;;
791;SDS011;379;49.022;12.148;2022-10-18T15:30:21;3.83;;;3.53;;
791;SDS011;379;49.022;12.148;2022-10-18T15:32:52;9.10;;;4.13;;
791;SDS011;379;49.022;12.148;2022-10-18T15:35:22;4.63;;;3.53;;
791;SDS011;379;49.022;12.148;2022-10-18T15:37:51;4.30;;;3.00;;
791;SDS011;379;49.022;12.148;2022-10-18T15:40:28;2.67;;;2.47;;
791;SDS011;379;49.022;12.148;2022-10-18T15:43:02;4.67;;;3.30;;
791;SDS011;379;49.022;12.148;2022-10-18T15:45:32;3.60;;;2.60;;
791;SDS011;379;49.022;12.148;2022-10-18T15:48:16;3.50;;;2.80;;
791;SDS011;379;49.022;12.148;2022-10-18T15:50:46;3.00;;;2.70;;
791;SDS011;379;49.022;12.148;2022-10-18T15:56:05;2.80;;;2.07;;
791;SDS011;379;49.022;12.148;2022-10-18T15:58:41;2.50;;;2.30;;
791;SDS011;379;49.022;12.148;2022-10-18T16:01:13;2.23;;;2.03;;
791;SDS011;379;49.022;12.148;2022-10-18T16:03:41;2.40;;;2.20;;
791;SDS011;379;49.022;12.148;2022-10-18T16:06:10;2.50;;;2.27;;
791;SDS011;379;49.022;12.148;2022-10-18T16:08:38;4.37;;;2.43;;
791;SDS011;379;49.022;12.148;2022-10-18T16:11:06;2.60;;;2.30;;
791;SDS011;379;49.022;12.148;2022-10-18T16:13:37;3.10;;;2.37;;
791;SDS011;379;49.022;12.148;2022-10-18T16:16:06;2.33;;;2.13;;
791;SDS011;379;49.022;12.148;2022-10-18T16:18:38;3.23;;;2.63;;
791;SDS011;379;49.022;12.148;2022-10-18T16:21:05;2.20;;;1.90;;
791;SDS011;379;49.022;12.148;2022-10-18T16:23:38;2.87;;;1.97;;
791;SDS011;379;49.022;12.148;2022-10-18T16:26:05;4.97;;;1.80;;
791;SDS011;379;49.022;12.148;2022-10-18T16:28:33;2.97;;;1.63;;
791;SDS011;379;49.022;12.148;2022-10-18T16:31:00;2.77;;;2.20;;